Time;durP1;ratioP1;P1;durP2;ratioP2;P2;SDS_P1;SDS_P2;PMS_P1;PMS_P2;Temp;Humidity;BMP_temperature;BMP_pressure;BME280_temperature;BME280_humidity;BME280_pressure;Samples;Min_cycle;Max_cycle;Signal;HPM_P1;HPM_P2
2022/01/30 00:00:57;;;;;;;174.43;138.48;;;19.10;40.30;;;;;;4788578;55;21188;-38
2022/01/30 00:05:57;;;;;;;168.80;134.95;;;19.10;40.20;;;;;;4754244;55;21014;-38
2022/01/30 00:11:06;;;;;;;167.77;134.52;;;19.10;40.20;;;;;;4766544;55;21445;-37
2022/01/30 00:16:10;;;;;;;173.77;136.07;;;19.10;40.20;;;;;;4749963;55;21552;-38
2022/01/30 00:26:47;;;;;;;170.00;135.45;;;19.10;40.80;;;;;;4739245;55;21089;-43
2022/01/30 00:31:49;;;;;;;172.02;134.63;;;19.10;40.10;;;;;;4740920;55;21464;-39
2022/01/30 00:36:50;;;;;;;163.62;127.00;;;19.10;40.10;;;;;;4743064;55;20994;-44
2022/01/30 00:41:51;;;;;;;171.95;133.85;;;19.10;40.10;;;;;;4743897;55;21447;-44
2022/01/30 00:46:53;;;;;;;174.25;136.02;;;19.10;40.20;;;;;;4743287;55;21034;-34
2022/01/30 00:51:54;;;;;;;170.77;132.18;;;19.10;40.10;;;;;;4767637;55;21528;-40
2022/01/30 00:56:55;;;;;;;172.75;134.12;;;19.10;40.00;;;;;;4765682;55;21037;-41
2022/01/30 01:01:56;;;;;;;167.02;128.05;;;19.10;40.10;;;;;;4746137;55;21061;-34
2022/01/30 01:06:56;;;;;;;171.75;133.05;;;19.10;40.00;;;;;;4743976;55;21006;-32
2022/01/30 01:12:30;;;;;;;168.35;128.48;;;19.10;40.00;;;;;;4784976;55;21018;-40
2022/01/30 01:28:10;;;;;;;175.32;133.80;;;19.10;39.90;;;;;;4738522;59;22083;-38
2022/01/30 01:33:10;;;;;;;168.35;126.70;;;19.10;39.90;;;;;;4737935;59;20995;-38
2022/01/30 01:38:14;;;;;;;169.07;129.55;;;19.10;40.00;;;;;;4782496;55;21073;-35
2022/01/30 01:43:15;;;;;;;163.55;126.53;;;19.10;39.90;;;;;;4754607;55;21547;-36
2022/01/30 01:48:16;;;;;;;160.93;123.97;;;19.10;39.80;;;;;;4752088;55;21001;-40
2022/01/30 01:53:19;;;;;;;162.98;126.87;;;19.10;39.80;;;;;;4756955;55;21066;-37
2022/01/30 01:58:24;;;;;;;162.65;127.60;;;19.10;39.80;;;;;;4741590;55;21080;-44
2022/01/30 02:03:26;;;;;;;163.52;130.43;;;19.10;39.80;;;;;;4738115;59;21461;-38
2022/01/30 02:08:39;;;;;;;173.00;131.15;;;19.00;39.70;;;;;;4749615;55;21009;-40
2022/01/30 02:14:53;;;;;;;168.73;130.35;;;19.00;39.70;;;;;;4738135;56;21844;-35
2022/01/30 02:25:30;;;;;;;162.35;126.55;;;19.10;39.80;;;;;;4742231;55;21496;-36
2022/01/30 02:30:35;;;;;;;166.70;128.18;;;19.00;39.70;;;;;;4738124;55;21571;-42
2022/01/30 02:35:35;;;;;;;169.30;130.27;;;19.00;39.60;;;;;;4783611;55;21575;-39
2022/01/30 02:40:40;;;;;;;163.52;127.55;;;19.00;39.60;;;;;;4761678;55;21148;-35
2022/01/30 02:45:48;;;;;;;162.93;126.85;;;19.00;39.60;;;;;;4746493;55;21554;-44
2022/01/30 02:51:07;;;;;;;165.20;127.82;;;19.00;39.60;;;;;;4740996;55;21516;-39
2022/01/30 02:56:09;;;;;;;156.55;122.53;;;19.00;39.60;;;;;;4756872;55;21101;-35
2022/01/30 03:01:10;;;;;;;155.77;117.85;;;19.00;39.50;;;;;;4737836;59;21097;-38
2022/01/30 03:06:11;;;;;;;161.37;126.75;;;19.00;39.60;;;;;;4763651;55;20994;-37
2022/01/30 03:11:11;;;;;;;159.25;124.80;;;19.00;39.60;;;;;;4739033;55;21491;-35
2022/01/30 03:16:13;;;;;;;160.27;124.93;;;19.00;39.60;;;;;;4760307;55;21650;-40
2022/01/30 03:21:14;;;;;;;155.57;118.40;;;19.00;39.60;;;;;;4814739;55;21472;-41
2022/01/30 03:26:16;;;;;;;158.55;123.35;;;19.00;39.60;;;;;;4738453;55;21583;-40
2022/01/30 03:31:19;;;;;;;153.23;119.62;;;19.00;39.50;;;;;;4737790;59;21006;-44
2022/01/30 03:36:20;;;;;;;159.15;124.18;;;19.00;39.50;;;;;;4745238;55;21515;-41
2022/01/30 03:41:21;;;;;;;157.52;121.93;;;19.00;39.50;;;;;;4738515;59;21074;-41
2022/01/30 03:46:23;;;;;;;151.60;119.60;;;19.00;39.60;;;;;;4737441;59;21587;-39
2022/01/30 03:51:24;;;;;;;147.23;113.18;;;19.00;39.50;;;;;;4759412;55;21074;-37
2022/01/30 03:56:25;;;;;;;148.60;116.82;;;19.00;40.00;;;;;;4760347;55;21588;-38
2022/01/30 04:01:26;;;;;;;155.98;119.30;;;19.00;39.40;;;;;;4740501;55;21368;-42
2022/01/30 04:06:27;;;;;;;152.12;116.60;;;19.00;39.40;;;;;;4760748;55;21089;-37
2022/01/30 04:11:29;;;;;;;147.87;115.30;;;19.00;39.40;;;;;;4737984;59;21013;-41
2022/01/30 04:16:31;;;;;;;146.35;114.43;;;19.00;39.40;;;;;;4746647;55;21579;-37
2022/01/30 04:21:32;;;;;;;149.18;118.22;;;19.00;39.40;;;;;;4769631;55;21046;-39
2022/01/30 04:26:33;;;;;;;153.93;116.07;;;19.00;39.40;;;;;;4737235;59;21077;-34
2022/01/30 04:31:34;;;;;;;147.37;114.53;;;19.00;39.40;;;;;;4776391;55;21496;-39
2022/01/30 04:36:41;;;;;;;144.80;114.07;;;19.00;39.40;;;;;;4737942;59;21066;-35
2022/01/30 04:52:02;;;;;;;140.43;108.95;;;19.00;39.40;;;;;;4751235;55;22252;-36
2022/01/30 04:57:23;;;;;;;134.27;103.30;;;19.00;39.40;;;;;;4748697;55;21512;-46
2022/01/30 05:07:47;;;;;;;136.57;108.07;;;19.00;39.30;;;;;;4737666;55;21025;-34
2022/01/30 05:12:52;;;;;;;134.02;108.53;;;19.00;39.30;;;;;;4770299;55;21635;-42
2022/01/30 05:17:54;;;;;;;130.23;100.00;;;19.00;39.30;;;;;;4780919;55;21562;-38
2022/01/30 05:22:56;;;;;;;133.20;105.93;;;19.00;39.30;;;;;;4737617;59;21050;-35
2022/01/30 05:27:57;;;;;;;130.48;102.80;;;19.00;39.30;;;;;;4749100;55;21006;-37
2022/01/30 05:32:59;;;;;;;131.48;103.53;;;19.00;39.90;;;;;;4737504;59;21532;-38
2022/01/30 05:38:01;;;;;;;128.18;101.62;;;18.90;39.20;;;;;;4775794;55;21074;-37
2022/01/30 05:43:03;;;;;;;129.10;102.93;;;19.00;39.20;;;;;;4743616;55;20994;-35
2022/01/30 05:48:11;;;;;;;126.70;101.85;;;19.00;39.20;;;;;;4746542;55;21543;-40
2022/01/30 05:53:13;;;;;;;125.43;98.45;;;19.00;39.10;;;;;;4776935;55;21655;-44
2022/01/30 05:58:15;;;;;;;125.87;97.07;;;19.00;39.10;;;;;;4757276;55;22361;-42
2022/01/30 06:03:16;;;;;;;123.78;97.05;;;19.00;39.10;;;;;;4755738;55;21992;-43
2022/01/30 06:08:38;;;;;;;121.97;97.43;;;18.90;39.10;;;;;;4737248;59;21203;-35
2022/01/30 06:13:39;;;;;;;123.65;96.12;;;18.90;39.20;;;;;;4746642;55;21507;-41
2022/01/30 06:18:40;;;;;;;118.18;96.97;;;18.90;39.10;;;;;;4747514;55;21033;-43
2022/01/30 06:23:42;;;;;;;115.72;93.40;;;18.90;39.10;;;;;;4819728;55;21066;-34
2022/01/30 06:28:43;;;;;;;121.85;94.78;;;18.90;39.10;;;;;;4762297;55;21499;-42
2022/01/30 06:33:44;;;;;;;121.57;93.53;;;18.90;39.10;;;;;;4738900;59;21005;-45
2022/01/30 06:38:45;;;;;;;118.32;91.82;;;18.90;39.10;;;;;;4753284;55;21097;-32
2022/01/30 06:43:45;;;;;;;115.18;92.12;;;18.90;39.10;;;;;;4737894;59;21033;-44
2022/01/30 06:48:46;;;;;;;117.85;91.85;;;18.90;39.10;;;;;;4774678;55;21496;-40
2022/01/30 06:53:47;;;;;;;108.82;85.72;;;18.90;39.10;;;;;;4792426;55;21077;-38
2022/01/30 06:58:48;;;;;;;113.45;88.78;;;18.90;39.10;;;;;;4761824;55;21034;-41
2022/01/30 07:03:49;;;;;;;112.35;89.55;;;18.90;39.00;;;;;;4751950;55;21026;-38
2022/01/30 07:08:50;;;;;;;112.22;88.80;;;18.80;39.00;;;;;;4749342;55;21543;-38
2022/01/30 07:13:51;;;;;;;109.07;87.62;;;18.90;39.00;;;;;;4737914;59;21137;-45
2022/01/30 07:18:51;;;;;;;112.60;89.07;;;18.90;38.40;;;;;;4779464;55;20998;-42
2022/01/30 07:23:52;;;;;;;113.05;88.20;;;18.90;38.90;;;;;;4741979;55;21018;-46
2022/01/30 07:28:53;;;;;;;108.80;86.07;;;18.90;39.00;;;;;;4736670;59;21162;-45
2022/01/30 07:33:54;;;;;;;110.68;86.80;;;18.90;39.00;;;;;;4756357;55;21032;-36
2022/01/30 07:38:55;;;;;;;106.20;84.13;;;18.90;38.90;;;;;;4737721;59;21014;-39
2022/01/30 07:43:56;;;;;;;106.68;84.28;;;18.90;39.00;;;;;;4737593;59;21034;-44
2022/01/30 07:48:57;;;;;;;105.43;85.80;;;18.90;39.00;;;;;;4780946;55;22254;-41
2022/01/30 07:53:58;;;;;;;103.35;83.43;;;18.90;39.00;;;;;;4773472;55;22295;-38
2022/01/30 07:58:59;;;;;;;105.82;83.55;;;18.90;39.00;;;;;;4738265;55;21011;-46
2022/01/30 08:04:00;;;;;;;108.05;85.60;;;18.90;39.00;;;;;;4757419;55;21046;-37
2022/01/30 08:09:02;;;;;;;108.30;85.82;;;18.90;39.00;;;;;;4756668;55;21018;-38
2022/01/30 08:14:03;;;;;;;105.15;85.15;;;18.90;39.00;;;;;;4755831;55;21038;-41
2022/01/30 08:19:04;;;;;;;110.57;85.50;;;18.90;39.00;;;;;;4737801;59;21499;-34
2022/01/30 08:24:05;;;;;;;109.12;87.35;;;18.90;39.00;;;;;;4738238;59;21468;-40
2022/01/30 08:29:06;;;;;;;108.93;86.75;;;18.90;39.00;;;;;;4787564;55;21042;-46
2022/01/30 08:34:07;;;;;;;109.15;87.80;;;18.90;39.00;;;;;;4792194;55;21484;-36
2022/01/30 08:39:08;;;;;;;109.47;86.00;;;18.90;39.00;;;;;;4758788;55;21074;-44
2022/01/30 08:44:09;;;;;;;115.07;88.97;;;18.90;39.00;;;;;;4738028;55;21038;-36
2022/01/30 08:49:09;;;;;;;111.05;89.32;;;18.90;38.90;;;;;;4737886;59;21491;-37
2022/01/30 08:54:10;;;;;;;109.63;87.95;;;18.90;39.00;;;;;;4774852;55;21058;-34
2022/01/30 08:59:12;;;;;;;105.72;82.25;;;18.90;39.00;;;;;;4761551;55;21460;-38
2022/01/30 09:04:14;;;;;;;112.78;88.78;;;18.90;39.00;;;;;;4737113;59;21050;-35
2022/01/30 09:09:15;;;;;;;108.55;84.97;;;18.90;39.00;;;;;;4758476;55;21607;-36
2022/01/30 09:14:15;;;;;;;117.13;92.55;;;18.90;39.00;;;;;;4755257;55;21094;-37
2022/01/30 09:19:16;;;;;;;113.55;89.53;;;18.90;39.10;;;;;;4760460;55;21010;-34
2022/01/30 09:24:17;;;;;;;111.97;91.43;;;18.90;39.10;;;;;;4787055;55;21010;-44
2022/01/30 09:29:22;;;;;;;112.62;89.50;;;18.90;39.20;;;;;;4767703;55;21233;-36
2022/01/30 09:34:23;;;;;;;111.90;86.65;;;18.90;39.10;;;;;;4753378;55;22133;-44
2022/01/30 09:39:24;;;;;;;113.30;89.90;;;18.90;39.10;;;;;;4757041;55;21105;-39
2022/01/30 09:44:25;;;;;;;115.75;91.20;;;18.90;39.20;;;;;;4782689;55;21034;-40
2022/01/30 09:49:29;;;;;;;123.78;95.25;;;18.90;39.20;;;;;;4763191;55;21176;-38
2022/01/30 09:54:30;;;;;;;115.82;94.55;;;18.90;39.20;;;;;;4737480;59;21210;-39
2022/01/30 09:59:31;;;;;;;112.88;91.10;;;18.90;39.20;;;;;;4773313;55;21033;-39
2022/01/30 10:04:33;;;;;;;114.60;91.57;;;18.90;39.30;;;;;;4768574;55;21121;-42
2022/01/30 10:09:37;;;;;;;125.10;99.57;;;18.90;39.30;;;;;;4737809;59;21037;-37
2022/01/30 10:15:06;;;;;;;123.15;98.25;;;18.90;39.30;;;;;;4777852;55;21042;-39
2022/01/30 10:20:13;;;;;;;122.65;94.55;;;18.90;39.30;;;;;;4762273;55;21014;-49
2022/01/30 10:25:29;;;;;;;125.47;99.75;;;18.90;39.30;;;;;;4769888;55;21077;-32
2022/01/30 10:30:38;;;;;;;124.25;99.70;;;18.90;39.30;;;;;;4800167;55;21026;-43
2022/01/30 10:35:58;;;;;;;126.00;99.30;;;18.90;39.40;;;;;;4740397;55;21006;-39
2022/01/30 10:41:11;;;;;;;130.65;104.72;;;18.90;39.30;;;;;;4755413;55;21026;-33
2022/01/30 10:46:19;;;;;;;132.30;103.20;;;18.90;39.40;;;;;;4738209;59;21614;-38
2022/01/30 10:51:21;;;;;;;129.65;102.25;;;18.90;39.40;;;;;;4775315;55;21058;-34
2022/01/30 10:56:26;;;;;;;128.23;104.80;;;18.90;39.40;;;;;;4748474;55;21014;-38
2022/01/30 11:01:27;;;;;;;131.15;105.53;;;18.90;39.50;;;;;;4747127;55;21460;-35
2022/01/30 11:06:29;;;;;;;133.65;108.53;;;18.90;39.50;;;;;;4785573;55;21034;-44
2022/01/30 11:11:47;;;;;;;136.77;108.25;;;18.90;39.50;;;;;;4738552;55;21033;-42
2022/01/30 11:17:05;;;;;;;133.55;107.70;;;18.90;39.50;;;;;;4771574;55;21530;-36
2022/01/30 11:22:21;;;;;;;133.23;106.05;;;18.90;40.20;;;;;;4738145;55;21099;-37
2022/01/30 11:27:23;;;;;;;138.48;111.97;;;18.90;39.50;;;;;;4737674;56;21033;-38
2022/01/30 11:32:23;;;;;;;136.75;110.47;;;18.90;39.50;;;;;;4764431;55;21022;-41
2022/01/30 11:37:28;;;;;;;140.88;111.68;;;18.90;39.50;;;;;;4807130;55;21540;-38
2022/01/30 11:42:41;;;;;;;137.00;112.18;;;18.90;39.50;;;;;;4762075;55;21175;-35
2022/01/30 11:47:50;;;;;;;140.23;109.95;;;18.90;39.60;;;;;;4757119;55;21555;-38
2022/01/30 11:53:15;;;;;;;141.75;113.97;;;19.00;39.60;;;;;;4738058;55;22003;-38
2022/01/30 11:58:38;;;;;;;140.60;111.70;;;18.90;39.60;;;;;;4813260;55;21038;-41
2022/01/30 12:03:51;;;;;;;142.50;113.28;;;19.00;39.70;;;;;;4753784;55;21323;-41
2022/01/30 12:08:56;;;;;;;141.77;115.80;;;18.90;39.70;;;;;;4762839;55;21500;-42
2022/01/30 12:13:57;;;;;;;143.40;115.30;;;18.90;39.70;;;;;;4738888;55;21110;-43
2022/01/30 12:18:58;;;;;;;140.15;114.70;;;18.90;40.40;;;;;;4792065;55;21526;-40
2022/01/30 12:24:25;;;;;;;140.90;111.57;;;18.90;39.70;;;;;;4737939;57;20994;-40
2022/01/30 12:29:41;;;;;;;144.48;112.85;;;18.90;39.80;;;;;;4744653;55;21013;-37
2022/01/30 12:34:42;;;;;;;142.52;116.62;;;18.90;39.80;;;;;;4796128;55;21006;-41
2022/01/30 12:39:42;;;;;;;141.10;115.07;;;18.90;39.80;;;;;;4760414;55;21022;-38
2022/01/30 12:44:45;;;;;;;141.73;114.57;;;18.90;39.90;;;;;;4747170;55;21078;-41
2022/01/30 12:49:51;;;;;;;135.18;109.85;;;18.90;39.90;;;;;;4788212;55;21561;-38
2022/01/30 12:54:54;;;;;;;145.00;116.45;;;18.90;39.90;;;;;;4749971;55;21492;-36
2022/01/30 12:59:57;;;;;;;140.12;110.55;;;18.90;39.90;;;;;;4761445;55;21461;-41
2022/01/30 13:05:03;;;;;;;147.48;117.70;;;19.00;40.00;;;;;;4747278;55;21021;-35
2022/01/30 13:10:11;;;;;;;146.13;118.32;;;18.90;40.00;;;;;;4749002;55;20994;-39
2022/01/30 13:15:14;;;;;;;141.73;115.53;;;18.90;40.00;;;;;;4783760;55;21077;-40
2022/01/30 13:20:20;;;;;;;145.65;119.03;;;19.00;40.00;;;;;;4760890;55;21069;-39
2022/01/30 13:25:22;;;;;;;144.85;116.43;;;18.90;40.00;;;;;;4761300;55;21046;-42
2022/01/30 13:30:32;;;;;;;145.32;115.82;;;18.90;40.00;;;;;;4785922;55;21006;-44
2022/01/30 13:35:32;;;;;;;146.87;118.65;;;18.90;40.00;;;;;;4738285;59;21018;-46
2022/01/30 13:40:43;;;;;;;144.35;117.55;;;18.90;40.10;;;;;;4738559;59;21003;-45
2022/01/30 13:51:06;;;;;;;139.45;110.88;;;19.00;40.10;;;;;;4740788;55;21014;-36
2022/01/30 13:56:12;;;;;;;149.57;118.60;;;18.90;40.10;;;;;;4747129;55;22002;-39
2022/01/30 14:01:30;;;;;;;143.75;118.05;;;18.90;40.10;;;;;;4737919;59;20997;-36
2022/01/30 14:06:34;;;;;;;148.43;120.97;;;19.00;40.10;;;;;;4747593;55;21496;-42
2022/01/30 14:11:37;;;;;;;143.75;119.55;;;18.90;40.10;;;;;;4738089;59;21531;-39
2022/01/30 14:16:46;;;;;;;141.55;112.78;;;18.90;40.10;;;;;;4738062;59;20998;-44
2022/01/30 14:21:52;;;;;;;143.87;119.75;;;18.90;40.10;;;;;;4766863;55;20993;-39
2022/01/30 14:27:10;;;;;;;144.07;120.65;;;18.90;40.10;;;;;;4756782;55;21085;-39
2022/01/30 14:32:14;;;;;;;148.15;121.00;;;18.90;40.10;;;;;;4779026;55;21029;-34
2022/01/30 14:37:15;;;;;;;138.18;110.88;;;18.90;40.10;;;;;;4782189;55;21041;-43
2022/01/30 14:42:16;;;;;;;151.07;120.60;;;18.90;40.10;;;;;;4788549;55;21001;-35
2022/01/30 14:47:17;;;;;;;148.82;120.57;;;19.00;40.20;;;;;;4759183;55;21580;-38
2022/01/30 14:52:18;;;;;;;144.32;120.13;;;18.90;40.10;;;;;;4748593;55;21026;-44
2022/01/30 14:57:22;;;;;;;149.90;120.65;;;18.90;40.10;;;;;;4738596;55;21073;-42
2022/01/30 15:02:23;;;;;;;145.75;118.18;;;18.90;40.10;;;;;;4746558;55;21567;-35
2022/01/30 15:07:24;;;;;;;146.73;120.50;;;18.90;40.20;;;;;;4764738;55;21149;-38
2022/01/30 15:12:25;;;;;;;140.57;115.07;;;18.90;40.10;;;;;;4792153;55;21503;-42
2022/01/30 15:17:34;;;;;;;142.62;116.43;;;18.90;40.20;;;;;;4737279;59;21066;-44
2022/01/30 15:22:35;;;;;;;141.73;117.87;;;18.90;40.20;;;;;;4750482;55;21594;-37
2022/01/30 15:27:38;;;;;;;142.00;117.55;;;18.90;40.20;;;;;;4751452;55;21053;-38
2022/01/30 15:32:39;;;;;;;147.32;118.90;;;18.90;40.20;;;;;;4750806;55;21069;-39
2022/01/30 15:37:41;;;;;;;143.25;118.40;;;18.90;40.20;;;;;;4737641;59;20998;-43
2022/01/30 15:42:41;;;;;;;139.15;115.68;;;18.90;40.20;;;;;;4809259;55;21014;-34
2022/01/30 15:53:02;;;;;;;143.37;114.88;;;18.90;40.20;;;;;;4738783;59;21137;-39
2022/01/30 15:58:03;;;;;;;143.75;119.45;;;18.90;40.20;;;;;;4743483;55;22213;-41
2022/01/30 16:03:03;;;;;;;145.48;118.85;;;18.90;40.20;;;;;;4737731;59;21006;-39
2022/01/30 16:08:05;;;;;;;140.48;116.20;;;18.90;40.20;;;;;;4757710;55;21464;-38
2022/01/30 16:18:25;;;;;;;145.52;120.37;;;18.90;40.20;;;;;;4737598;55;21014;-36
2022/01/30 16:23:28;;;;;;;144.00;121.57;;;18.90;40.20;;;;;;4738076;59;21026;-42
2022/01/30 16:28:29;;;;;;;141.60;117.18;;;18.90;40.20;;;;;;4737351;59;21450;-39
2022/01/30 16:33:30;;;;;;;141.27;116.78;;;18.90;40.20;;;;;;4762630;55;21021;-47
2022/01/30 16:38:31;;;;;;;144.10;118.68;;;18.90;40.20;;;;;;4761214;55;21535;-44
2022/01/30 16:43:49;;;;;;;147.75;121.97;;;18.90;40.20;;;;;;4770256;55;21046;-33
2022/01/30 16:48:50;;;;;;;144.57;117.90;;;18.90;40.20;;;;;;4736871;59;21531;-42
2022/01/30 16:53:51;;;;;;;147.30;119.80;;;18.90;40.20;;;;;;4751117;55;21025;-40
2022/01/30 16:58:52;;;;;;;145.85;120.57;;;18.90;40.20;;;;;;4747603;55;21496;-43
2022/01/30 17:03:53;;;;;;;151.43;121.13;;;18.90;40.20;;;;;;4749038;55;21069;-46
2022/01/30 17:09:01;;;;;;;150.70;124.62;;;18.90;40.20;;;;;;4763110;55;21002;-37
2022/01/30 17:14:03;;;;;;;153.87;125.25;;;18.90;40.20;;;;;;4739748;55;21543;-39
2022/01/30 17:19:05;;;;;;;151.77;126.72;;;18.90;40.20;;;;;;4752338;55;21079;-34
2022/01/30 17:24:06;;;;;;;158.90;127.43;;;18.90;40.20;;;;;;4761134;55;21516;-37
2022/01/30 17:29:07;;;;;;;155.45;127.80;;;18.90;40.20;;;;;;4736821;59;21018;-38
2022/01/30 17:34:08;;;;;;;157.12;126.35;;;18.90;40.20;;;;;;4759818;55;21065;-45
2022/01/30 17:39:09;;;;;;;153.43;125.05;;;18.90;40.20;;;;;;4737777;59;21062;-41
2022/01/30 17:44:11;;;;;;;149.65;122.85;;;18.90;40.20;;;;;;4787710;55;21510;-38
2022/01/30 17:49:11;;;;;;;152.73;125.85;;;18.90;40.20;;;;;;4793762;55;21022;-39
2022/01/30 17:54:12;;;;;;;156.10;125.93;;;18.90;40.20;;;;;;4759581;55;21131;-35
2022/01/30 17:59:13;;;;;;;155.90;126.12;;;18.90;40.20;;;;;;4738996;55;21061;-43
2022/01/30 18:04:19;;;;;;;152.45;127.60;;;18.90;40.50;;;;;;4738563;55;21484;-33
2022/01/30 18:09:20;;;;;;;155.15;126.12;;;18.90;40.20;;;;;;4773409;55;21594;-37
2022/01/30 18:14:21;;;;;;;165.73;130.85;;;18.90;40.20;;;;;;4761688;55;21532;-42
2022/01/30 18:19:22;;;;;;;154.68;125.40;;;18.90;40.30;;;;;;4748944;55;21046;-39
2022/01/30 18:24:23;;;;;;;158.20;129.40;;;18.90;40.20;;;;;;4741866;55;21575;-36
2022/01/30 18:29:25;;;;;;;162.70;130.75;;;18.90;40.20;;;;;;4743687;55;21026;-36
2022/01/30 18:34:25;;;;;;;165.35;133.30;;;18.90;40.20;;;;;;4744594;55;21093;-38
2022/01/30 18:39:40;;;;;;;159.37;130.10;;;18.90;40.20;;;;;;4803711;55;21512;-38
2022/01/30 18:44:41;;;;;;;161.48;133.43;;;18.90;40.20;;;;;;4774087;55;21568;-37
2022/01/30 18:49:47;;;;;;;161.90;129.90;;;18.90;40.20;;;;;;4738362;59;21106;-35
2022/01/30 18:54:48;;;;;;;162.10;131.82;;;18.90;40.30;;;;;;4751774;55;22034;-40
2022/01/30 18:59:49;;;;;;;157.07;128.65;;;18.90;40.20;;;;;;4807023;55;21042;-37
2022/01/30 19:04:50;;;;;;;162.73;130.82;;;18.90;40.20;;;;;;4748519;55;22390;-40
2022/01/30 19:09:55;;;;;;;166.98;135.43;;;18.90;40.20;;;;;;4738042;59;21018;-37
2022/01/30 19:14:56;;;;;;;154.90;122.95;;;18.90;40.20;;;;;;4756099;55;21137;-44
2022/01/30 19:19:57;;;;;;;159.60;130.60;;;18.90;40.20;;;;;;4763799;55;21550;-38
2022/01/30 19:24:59;;;;;;;165.02;134.18;;;18.90;40.20;;;;;;4750316;55;21030;-36
2022/01/30 19:30:01;;;;;;;162.30;134.35;;;18.90;40.30;;;;;;4748964;55;21520;-37
2022/01/30 19:35:02;;;;;;;162.10;132.82;;;18.90;40.10;;;;;;4785347;55;21612;-37
2022/01/30 19:40:05;;;;;;;160.43;129.40;;;18.90;40.20;;;;;;4747372;55;21056;-37
2022/01/30 19:45:07;;;;;;;162.75;131.15;;;18.90;40.20;;;;;;4747061;55;21520;-34
2022/01/30 19:50:09;;;;;;;159.65;130.27;;;18.90;40.20;;;;;;4759349;55;21516;-40
2022/01/30 19:55:11;;;;;;;159.07;129.15;;;18.90;40.20;;;;;;4743727;55;21038;-35
2022/01/30 20:00:15;;;;;;;157.32;129.05;;;18.90;40.20;;;;;;4741814;55;21556;-38
2022/01/30 20:05:16;;;;;;;153.65;127.72;;;18.80;40.10;;;;;;4789184;55;21009;-38
2022/01/30 20:10:17;;;;;;;154.05;126.15;;;18.90;40.10;;;;;;4754950;55;21057;-38
2022/01/30 20:15:18;;;;;;;161.23;128.57;;;18.80;40.10;;;;;;4763138;55;21061;-36
2022/01/30 20:20:19;;;;;;;157.45;128.15;;;18.90;40.10;;;;;;4737836;59;21018;-42
2022/01/30 20:25:20;;;;;;;158.95;128.27;;;18.80;40.10;;;;;;4738881;55;21094;-37
2022/01/30 20:30:23;;;;;;;156.93;127.32;;;18.80;40.20;;;;;;4739978;55;21065;-35
2022/01/30 20:35:24;;;;;;;159.48;129.35;;;18.80;40.10;;;;;;4768901;55;21558;-35
2022/01/30 20:40:25;;;;;;;155.07;130.48;;;18.80;40.10;;;;;;4805888;55;21081;-38
2022/01/30 20:45:26;;;;;;;148.18;122.82;;;18.80;40.00;;;;;;4744621;55;21090;-35
2022/01/30 20:50:29;;;;;;;160.07;129.63;;;18.80;40.00;;;;;;4756245;55;21568;-37
2022/01/30 20:55:30;;;;;;;153.32;124.60;;;18.80;40.00;;;;;;4776754;55;21539;-43
2022/01/30 21:00:31;;;;;;;150.57;121.13;;;18.80;40.00;;;;;;4764903;55;21089;-35
2022/01/30 21:05:33;;;;;;;152.25;122.50;;;18.80;40.00;;;;;;4753755;55;21029;-38
2022/01/30 21:10:35;;;;;;;154.70;124.87;;;18.80;40.00;;;;;;4740962;55;21596;-36
2022/01/30 21:15:36;;;;;;;150.82;124.50;;;18.80;40.00;;;;;;4737157;59;21500;-37
2022/01/30 21:20:38;;;;;;;153.20;125.87;;;18.80;39.90;;;;;;4758283;55;20997;-39
2022/01/30 21:25:45;;;;;;;146.30;119.90;;;18.80;40.00;;;;;;4737280;59;21037;-41
2022/01/30 21:30:46;;;;;;;148.57;125.47;;;18.80;40.00;;;;;;4794828;55;21475;-36
2022/01/30 21:35:48;;;;;;;151.20;124.18;;;18.80;39.90;;;;;;4773159;55;21006;-44
2022/01/30 21:40:49;;;;;;;152.98;128.00;;;18.80;39.90;;;;;;4738158;59;21504;-41
2022/01/30 21:45:50;;;;;;;147.27;118.93;;;18.80;39.90;;;;;;4737964;59;21130;-38
2022/01/30 21:50:51;;;;;;;143.52;117.87;;;18.80;39.90;;;;;;4738239;55;21465;-39
2022/01/30 21:55:52;;;;;;;150.15;124.40;;;18.80;39.90;;;;;;4749101;55;21555;-36
2022/01/30 22:00:53;;;;;;;152.68;124.07;;;18.80;39.90;;;;;;4778874;55;21070;-38
2022/01/30 22:05:54;;;;;;;145.05;120.80;;;18.80;39.80;;;;;;4773977;55;21082;-41
2022/01/30 22:10:55;;;;;;;144.37;121.43;;;18.80;39.80;;;;;;4798430;55;21045;-36
2022/01/30 22:15:56;;;;;;;145.10;118.80;;;18.80;39.80;;;;;;4775678;55;21600;-40
2022/01/30 22:21:00;;;;;;;140.95;114.85;;;18.80;39.80;;;;;;4771445;55;21541;-36
2022/01/30 22:26:01;;;;;;;142.98;118.82;;;18.80;39.80;;;;;;4744705;55;21085;-37
2022/01/30 22:31:02;;;;;;;140.32;111.55;;;18.80;39.70;;;;;;4773062;55;21510;-41
2022/01/30 22:36:03;;;;;;;140.68;115.57;;;18.80;39.70;;;;;;4746223;55;21058;-37
2022/01/30 22:41:04;;;;;;;144.90;120.25;;;18.80;39.70;;;;;;4747551;55;21109;-37
2022/01/30 22:46:05;;;;;;;145.60;120.15;;;18.80;39.70;;;;;;4737984;55;21571;-38
2022/01/30 22:51:06;;;;;;;143.02;116.30;;;18.80;39.70;;;;;;4794782;55;21006;-34
2022/01/30 22:56:08;;;;;;;136.85;110.47;;;18.80;39.70;;;;;;4747682;55;21041;-39
2022/01/30 23:01:09;;;;;;;135.90;116.88;;;18.80;39.60;;;;;;4750316;55;21654;-45
2022/01/30 23:06:09;;;;;;;147.57;115.93;;;18.80;39.70;;;;;;4748283;55;21073;-33
2022/01/30 23:11:10;;;;;;;141.00;112.28;;;18.80;39.60;;;;;;4747742;55;20998;-39
2022/01/30 23:16:11;;;;;;;142.93;115.20;;;18.80;39.60;;;;;;4764277;55;21543;-37
2022/01/30 23:21:13;;;;;;;144.48;118.43;;;18.80;39.60;;;;;;4743495;55;21070;-36
2022/01/30 23:26:14;;;;;;;139.60;113.78;;;18.80;39.60;;;;;;4747750;55;21029;-39
2022/01/30 23:31:15;;;;;;;144.02;117.00;;;18.80;39.60;;;;;;4774332;55;21524;-41
2022/01/30 23:36:16;;;;;;;148.50;115.97;;;18.80;39.50;;;;;;4743161;55;21022;-34
2022/01/30 23:41:39;;;;;;;143.35;115.90;;;18.80;39.50;;;;;;4739149;55;21022;-39
2022/01/30 23:46:40;;;;;;;143.05;113.62;;;18.70;39.40;;;;;;4740241;55;21547;-40
2022/01/30 23:51:41;;;;;;;142.52;115.28;;;18.80;39.50;;;;;;4739777;55;21062;-44
2022/01/30 23:56:42;;;;;;;143.27;114.40;;;18.80;39.50;;;;;;4748062;55;21547;-38
